createdAt,value
2023-01-13T00:00:53.578Z,3.88
2023-01-13T00:01:55.350Z,2.88
2023-01-13T00:02:57.119Z,2.80
2023-01-13T00:04:00.158Z,2.92
2023-01-13T00:05:01.973Z,2.70
2023-01-13T00:06:04.514Z,2.42
2023-01-13T00:07:06.270Z,3.50
2023-01-13T00:08:08.114Z,3.40
2023-01-13T00:09:09.914Z,3.22
2023-01-13T00:10:11.850Z,3.83
2023-01-13T00:11:13.611Z,6.03
2023-01-13T00:12:15.420Z,4.03
2023-01-13T00:13:17.191Z,4.15
2023-01-13T00:14:18.996Z,3.78
2023-01-13T00:15:20.790Z,4.15
2023-01-13T00:16:22.628Z,3.58
2023-01-13T00:17:24.487Z,4.00
2023-01-13T00:18:26.861Z,4.00
2023-01-13T00:19:28.661Z,3.53
2023-01-13T00:20:30.441Z,4.28
2023-01-13T00:21:32.340Z,5.15
2023-01-13T00:22:35.347Z,3.70
2023-01-13T00:23:37.363Z,4.53
2023-01-13T00:24:39.217Z,3.92
2023-01-13T00:25:40.988Z,3.58
2023-01-13T00:26:42.777Z,4.57
2023-01-13T00:27:44.558Z,3.55
2023-01-13T00:28:46.719Z,3.60
2023-01-13T00:29:48.517Z,3.55
2023-01-13T00:30:50.366Z,3.67
2023-01-13T00:31:52.222Z,3.40
2023-01-13T00:32:54.094Z,21.83
2023-01-13T00:34:00.818Z,16.20
2023-01-13T00:35:02.598Z,7.05
2023-01-13T00:36:06.325Z,6.00
2023-01-13T00:37:08.493Z,5.13
2023-01-13T00:38:10.281Z,3.47
2023-01-13T00:39:12.138Z,3.72
2023-01-13T00:40:14.241Z,2.75
2023-01-13T00:41:18.408Z,2.50
2023-01-13T00:42:38.630Z,2.53
2023-01-13T00:43:40.943Z,3.13
2023-01-13T00:44:42.708Z,3.45
2023-01-13T00:45:44.805Z,3.60
2023-01-13T00:46:46.602Z,4.28
2023-01-13T00:47:48.526Z,4.10
2023-01-13T00:48:51.760Z,3.40
2023-01-13T00:49:53.599Z,4.20
2023-01-13T00:51:04.338Z,3.92
2023-01-13T00:52:06.236Z,4.18
2023-01-13T00:53:08.046Z,2.92
2023-01-13T00:54:09.967Z,3.40
2023-01-13T00:55:11.771Z,3.15
2023-01-13T00:56:18.117Z,4.13
2023-01-13T00:57:20.031Z,3.80
2023-01-13T00:58:21.802Z,4.15
2023-01-13T00:59:23.860Z,4.18
2023-01-13T01:00:32.048Z,4.15
2023-01-13T01:01:34.026Z,4.05
2023-01-13T01:02:36.069Z,4.35
2023-01-13T01:03:38.437Z,5.25
2023-01-13T01:04:40.221Z,5.28
2023-01-13T01:05:42.051Z,5.18
2023-01-13T01:06:43.914Z,5.70
2023-01-13T01:07:45.716Z,4.63
2023-01-13T01:08:47.682Z,5.15
2023-01-13T01:09:50.107Z,5.32
2023-01-13T01:11:07.674Z,5.57
2023-01-13T01:12:09.471Z,5.45
2023-01-13T01:13:14.949Z,5.65
2023-01-13T01:14:16.723Z,4.68
2023-01-13T01:15:18.501Z,4.45
2023-01-13T01:16:22.237Z,4.63
2023-01-13T01:17:24.053Z,4.40
2023-01-13T01:18:26.291Z,5.18
2023-01-13T01:19:28.064Z,4.35
2023-01-13T01:20:29.843Z,5.18
2023-01-13T01:21:32.176Z,5.22
2023-01-13T01:22:34.053Z,4.50
2023-01-13T01:23:37.054Z,4.43
2023-01-13T01:24:38.844Z,4.32
2023-01-13T01:25:40.621Z,4.93
2023-01-13T01:26:42.544Z,4.65
2023-01-13T01:27:44.311Z,6.00
2023-01-13T01:28:46.811Z,4.22
2023-01-13T01:29:48.592Z,4.35
2023-01-13T01:30:51.500Z,5.25
2023-01-13T01:31:53.747Z,6.60
2023-01-13T01:32:57.438Z,7.18
2023-01-13T01:34:00.134Z,7.72
2023-01-13T01:35:01.918Z,7.00
2023-01-13T01:36:04.688Z,6.82
2023-01-13T01:37:06.542Z,6.80
2023-01-13T01:38:08.376Z,16.40
2023-01-13T01:39:10.595Z,19.38
2023-01-13T01:40:12.721Z,8.65
2023-01-13T01:41:20.479Z,5.35
2023-01-13T01:42:41.502Z,4.78
2023-01-13T01:43:59.532Z,4.22
2023-01-13T01:45:15.242Z,4.07
2023-01-13T01:46:17.574Z,4.00
2023-01-13T01:47:20.610Z,3.35
2023-01-13T01:48:22.392Z,4.03
2023-01-13T01:49:33.193Z,4.75
2023-01-13T01:50:36.317Z,4.72
2023-01-13T01:52:18.400Z,4.90
2023-01-13T01:54:32.589Z,4.10
2023-01-13T01:55:37.200Z,3.95
2023-01-13T01:56:42.116Z,4.00
2023-01-13T01:57:53.462Z,4.38
2023-01-13T02:00:01.174Z,15.93
2023-01-13T02:01:03.139Z,4.18
2023-01-13T02:02:05.257Z,3.35
2023-01-13T02:03:09.183Z,3.30
2023-01-13T02:04:25.886Z,4.25
2023-01-13T02:05:27.721Z,3.80
2023-01-13T02:06:30.254Z,3.58
2023-01-13T02:07:34.615Z,3.50
2023-01-13T02:08:40.332Z,3.53
2023-01-13T02:09:42.195Z,3.72
2023-01-13T02:10:49.119Z,3.95
2023-01-13T02:12:23.170Z,3.20
2023-01-13T02:13:24.971Z,2.88
2023-01-13T02:14:29.186Z,4.43
2023-01-13T02:15:42.467Z,3.35
2023-01-13T02:17:27.520Z,3.25
2023-01-13T02:18:45.566Z,5.28
2023-01-13T02:20:16.945Z,38.78
2023-01-13T02:21:40.418Z,4.93
2023-01-13T02:23:07.346Z,3.05
2023-01-13T02:24:54.191Z,3.15
2023-01-13T02:26:14.976Z,3.50
2023-01-13T02:27:19.854Z,3.28
2023-01-13T02:29:01.148Z,3.47
2023-01-13T02:30:59.574Z,3.00
2023-01-13T02:32:13.805Z,3.60
2023-01-13T02:33:59.966Z,3.78
2023-01-13T02:35:12.690Z,3.22
2023-01-13T02:36:39.362Z,3.40
2023-01-13T02:37:44.017Z,4.07
2023-01-13T02:38:57.784Z,3.42
2023-01-13T02:40:30.788Z,3.85
2023-01-13T02:41:59.528Z,3.67
2023-01-13T02:43:47.971Z,3.72
2023-01-13T02:45:29.092Z,3.22
2023-01-13T02:46:36.156Z,4.07
2023-01-13T02:47:42.489Z,3.35
2023-01-13T02:48:48.045Z,2.95
2023-01-13T02:50:02.807Z,3.20
2023-01-13T02:51:09.703Z,3.78
2023-01-13T02:52:34.409Z,2.75
2023-01-13T02:53:43.035Z,3.00
2023-01-13T02:54:51.614Z,4.28
2023-01-13T02:55:56.417Z,2.80
2023-01-13T02:57:01.119Z,2.90
2023-01-13T02:58:06.439Z,3.13
2023-01-13T02:59:09.491Z,3.05
2023-01-13T03:00:13.598Z,4.13
2023-01-13T03:01:15.416Z,4.47
2023-01-13T03:02:21.580Z,3.08
2023-01-13T03:03:23.790Z,3.78
2023-01-13T03:04:49.703Z,2.95
2023-01-13T03:05:55.139Z,3.22
2023-01-13T03:07:31.073Z,2.72
2023-01-13T03:08:55.037Z,3.20
2023-01-13T03:10:25.243Z,2.72
2023-01-13T03:11:33.651Z,2.42
2023-01-13T03:12:38.099Z,2.28
2023-01-13T03:13:47.789Z,3.97
2023-01-13T03:14:58.283Z,4.25
2023-01-13T03:16:06.333Z,3.53
2023-01-13T03:17:13.848Z,4.57
2023-01-13T03:18:36.070Z,3.15
2023-01-13T03:19:53.970Z,3.45
2023-01-13T03:21:28.101Z,3.53
2023-01-13T03:22:41.255Z,2.17
2023-01-13T03:23:58.956Z,3.60
2023-01-13T03:25:29.981Z,2.70
2023-01-13T03:26:56.798Z,2.35
2023-01-13T03:28:06.957Z,3.67
2023-01-13T03:29:31.831Z,2.88
2023-01-13T03:30:48.590Z,4.53
2023-01-13T03:32:12.685Z,4.22
2023-01-13T03:33:24.214Z,4.97
2023-01-13T03:34:37.333Z,2.70
2023-01-13T03:35:44.052Z,4.07
2023-01-13T03:36:51.250Z,3.15
2023-01-13T03:38:00.523Z,4.05
2023-01-13T03:39:11.682Z,3.08
2023-01-13T03:40:18.731Z,4.18
2023-01-13T03:41:30.414Z,2.58
2023-01-13T03:42:36.561Z,3.03
2023-01-13T03:44:02.445Z,3.33
2023-01-13T03:45:12.617Z,3.63
2023-01-13T03:46:29.911Z,5.32
2023-01-13T03:47:36.861Z,4.40
2023-01-13T03:48:43.673Z,3.67
2023-01-13T03:49:53.724Z,3.00
2023-01-13T03:51:03.069Z,3.03
2023-01-13T03:52:10.028Z,3.10
2023-01-13T03:53:19.016Z,3.78
2023-01-13T03:54:23.937Z,2.55
2023-01-13T03:55:31.931Z,1.90
2023-01-13T03:56:43.448Z,2.63
2023-01-13T03:58:29.255Z,2.88
2023-01-13T03:59:38.447Z,2.33
2023-01-13T04:01:00.351Z,2.65
2023-01-13T04:02:14.505Z,2.78
2023-01-13T04:03:34.212Z,2.40
2023-01-13T04:04:52.260Z,2.88
2023-01-13T04:06:04.334Z,2.65
2023-01-13T04:07:15.768Z,2.80
2023-01-13T04:08:22.087Z,2.15
2023-01-13T04:09:29.607Z,2.95
2023-01-13T04:10:47.890Z,2.80
2023-01-13T04:11:54.812Z,3.15
2023-01-13T04:13:02.674Z,2.90
2023-01-13T04:14:08.507Z,2.88
2023-01-13T04:15:10.673Z,2.85
2023-01-13T04:16:13.334Z,3.03
2023-01-13T04:17:16.565Z,3.47
2023-01-13T04:18:22.445Z,4.45
2023-01-13T04:19:24.221Z,2.58
2023-01-13T04:20:25.922Z,2.92
2023-01-13T04:21:28.402Z,2.35
2023-01-13T04:22:30.127Z,2.63
2023-01-13T04:23:32.832Z,2.08
2023-01-13T04:24:34.546Z,2.40
2023-01-13T04:25:36.841Z,1.80
2023-01-13T04:26:38.600Z,2.40
2023-01-13T04:27:40.287Z,1.73
2023-01-13T04:28:41.970Z,2.00
2023-01-13T04:29:43.682Z,2.47
2023-01-13T04:30:46.022Z,2.13
2023-01-13T04:31:47.746Z,2.22
2023-01-13T04:32:49.471Z,1.95
2023-01-13T04:33:51.211Z,1.50
2023-01-13T04:34:52.970Z,5.07
2023-01-13T04:35:55.308Z,11.07
2023-01-13T04:36:57.051Z,3.38
2023-01-13T04:38:12.079Z,3.25
2023-01-13T04:39:13.842Z,3.25
2023-01-13T04:40:15.985Z,77.57
2023-01-13T04:41:17.692Z,7.40
2023-01-13T04:42:19.413Z,2.17
2023-01-13T04:43:21.295Z,2.13
2023-01-13T04:44:23.044Z,3.30
2023-01-13T04:45:24.942Z,3.28
2023-01-13T04:46:26.829Z,3.58
2023-01-13T04:47:28.607Z,2.63
2023-01-13T04:48:30.316Z,4.50
2023-01-13T04:49:32.047Z,2.50
2023-01-13T04:50:34.094Z,2.30
2023-01-13T04:51:35.811Z,1.75
2023-01-13T04:52:38.519Z,1.45
2023-01-13T04:53:40.235Z,1.75
2023-01-13T04:54:41.963Z,4.43
2023-01-13T04:55:44.604Z,2.47
2023-01-13T04:56:46.371Z,1.92
2023-01-13T04:57:48.120Z,3.92
2023-01-13T04:58:49.821Z,25.73
2023-01-13T04:59:52.176Z,40.03
2023-01-13T05:00:55.102Z,6.65
2023-01-13T05:01:56.911Z,2.95
2023-01-13T05:02:59.639Z,4.32
2023-01-13T05:04:01.357Z,2.63
2023-01-13T05:05:03.255Z,2.85
2023-01-13T05:06:05.121Z,5.22
2023-01-13T05:07:06.889Z,2.60
2023-01-13T05:08:09.213Z,2.45
2023-01-13T05:09:12.527Z,2.08
2023-01-13T05:10:14.414Z,1.73
2023-01-13T05:11:34.945Z,3.28
2023-01-13T05:12:55.507Z,2.03
2023-01-13T05:14:16.050Z,3.53
2023-01-13T05:15:36.553Z,4.95
2023-01-13T05:16:56.980Z,6.38
2023-01-13T05:17:59.133Z,12.18
2023-01-13T05:19:00.848Z,17.15
2023-01-13T05:20:02.729Z,56.72
2023-01-13T05:21:04.445Z,18.92
2023-01-13T05:22:24.661Z,9.43
2023-01-13T05:23:45.242Z,7.13
2023-01-13T05:25:05.844Z,11.02
2023-01-13T05:26:07.759Z,10.43
2023-01-13T05:27:09.937Z,10.15
2023-01-13T05:28:11.822Z,6.63
2023-01-13T05:29:13.618Z,5.28
2023-01-13T05:30:15.868Z,4.93
2023-01-13T05:31:17.590Z,3.83
2023-01-13T05:32:19.747Z,2.63
2023-01-13T05:33:21.550Z,4.05
2023-01-13T05:34:23.283Z,2.17
2023-01-13T05:35:25.246Z,2.20
2023-01-13T05:36:26.946Z,2.55
2023-01-13T05:37:28.759Z,4.40
2023-01-13T05:38:30.491Z,11.38
2023-01-13T05:39:52.140Z,5.88
2023-01-13T05:42:34.183Z,3.00
2023-01-13T05:43:36.026Z,2.72
2023-01-13T05:44:37.898Z,1.90
2023-01-13T05:45:39.607Z,1.67
2023-01-13T05:46:42.120Z,1.70
2023-01-13T05:47:43.879Z,2.35
2023-01-13T05:48:45.860Z,1.58
2023-01-13T05:49:47.560Z,4.22
2023-01-13T05:50:49.741Z,18.38
2023-01-13T05:51:51.467Z,47.58
2023-01-13T05:52:53.156Z,21.42
2023-01-13T05:53:54.938Z,20.15
2023-01-13T05:54:56.629Z,36.20
2023-01-13T05:55:58.565Z,39.92
2023-01-13T05:57:00.268Z,46.63
2023-01-13T05:58:02.025Z,46.53
2023-01-13T05:59:04.662Z,42.58
2023-01-13T06:00:07.116Z,48.92
2023-01-13T06:01:09.704Z,39.85
2023-01-13T06:02:11.461Z,30.67
2023-01-13T06:03:14.438Z,42.65
2023-01-13T06:04:16.301Z,29.27
2023-01-13T06:05:18.003Z,19.60
2023-01-13T06:06:19.689Z,9.45
2023-01-13T06:07:21.392Z,8.85
2023-01-13T06:08:23.097Z,10.98
2023-01-13T06:09:24.925Z,11.93
2023-01-13T06:10:27.746Z,11.38
2023-01-13T06:11:29.433Z,8.43
2023-01-13T06:12:31.115Z,6.55
2023-01-13T06:13:32.839Z,9.32
2023-01-13T06:14:40.238Z,13.18
2023-01-13T06:15:42.042Z,5.88
2023-01-13T06:16:45.683Z,4.57
2023-01-13T06:17:47.395Z,2.53
2023-01-13T06:18:49.086Z,4.38
2023-01-13T06:19:51.282Z,4.63
2023-01-13T06:20:53.124Z,4.22
2023-01-13T06:21:57.936Z,5.20
2023-01-13T06:23:00.558Z,5.70
2023-01-13T06:24:02.248Z,3.65
2023-01-13T06:25:04.550Z,6.80
2023-01-13T06:26:16.100Z,3.88
2023-01-13T06:27:18.458Z,3.05
2023-01-13T06:28:20.282Z,3.38
2023-01-13T06:29:21.982Z,3.65
2023-01-13T06:30:23.855Z,3.15
2023-01-13T06:31:26.364Z,3.15
2023-01-13T06:32:33.726Z,4.03
2023-01-13T06:33:49.515Z,4.15
2023-01-13T06:34:58.578Z,3.92
2023-01-13T06:36:06.157Z,7.00
2023-01-13T06:37:07.985Z,10.85
2023-01-13T06:38:13.366Z,7.03
2023-01-13T06:39:19.068Z,10.68
2023-01-13T06:40:21.396Z,14.40
2023-01-13T06:41:44.283Z,11.93
2023-01-13T06:43:04.604Z,14.95
2023-01-13T06:44:06.325Z,12.75
2023-01-13T06:45:08.720Z,18.58
2023-01-13T06:46:10.500Z,11.25
2023-01-13T06:47:12.275Z,7.47
2023-01-13T06:48:14.466Z,8.88
2023-01-13T06:49:16.189Z,8.70
2023-01-13T06:50:19.039Z,9.45
2023-01-13T06:51:20.866Z,5.35
2023-01-13T06:52:23.647Z,6.53
2023-01-13T06:53:25.457Z,5.30
2023-01-13T06:54:27.891Z,5.38
2023-01-13T06:55:29.702Z,5.82
2023-01-13T06:56:31.459Z,4.03
2023-01-13T06:57:33.207Z,3.63
2023-01-13T06:58:34.966Z,11.68
2023-01-13T06:59:36.712Z,5.20
2023-01-13T07:00:38.636Z,7.68
2023-01-13T07:01:40.565Z,6.05
2023-01-13T07:02:42.367Z,4.40
2023-01-13T07:03:44.124Z,4.72
2023-01-13T07:04:46.904Z,9.15
2023-01-13T07:05:56.162Z,6.65
2023-01-13T07:06:57.903Z,3.47
2023-01-13T07:07:59.672Z,7.95
2023-01-13T07:09:01.359Z,5.97
2023-01-13T07:10:04.011Z,4.65
2023-01-13T07:11:06.014Z,5.78
2023-01-13T07:12:07.991Z,5.85
2023-01-13T07:13:28.551Z,5.28
2023-01-13T07:14:49.153Z,5.95
2023-01-13T07:15:59.025Z,4.97
2023-01-13T07:17:00.832Z,4.85
2023-01-13T07:18:03.294Z,4.65
2023-01-13T07:19:04.999Z,5.22
2023-01-13T07:20:07.549Z,5.75
2023-01-13T07:21:12.080Z,4.55
2023-01-13T07:22:14.066Z,5.55
2023-01-13T07:23:15.760Z,5.55
2023-01-13T07:24:17.594Z,6.30
2023-01-13T07:25:19.333Z,6.80
2023-01-13T07:26:21.138Z,8.73
2023-01-13T07:27:22.861Z,4.93
2023-01-13T07:28:25.802Z,7.43
2023-01-13T07:29:27.509Z,4.03
2023-01-13T07:30:29.304Z,5.78
2023-01-13T07:31:31.141Z,5.75
2023-01-13T07:32:33.827Z,10.77
2023-01-13T07:33:35.687Z,12.55
2023-01-13T07:34:37.439Z,9.88
2023-01-13T07:35:39.203Z,9.82
2023-01-13T07:36:40.908Z,7.03
2023-01-13T07:37:42.624Z,5.57
2023-01-13T07:38:44.832Z,4.35
2023-01-13T07:39:46.531Z,4.40
2023-01-13T07:40:48.234Z,7.28
2023-01-13T07:42:08.553Z,3.65
2023-01-13T07:43:31.409Z,5.43
2023-01-13T07:44:33.193Z,6.35
2023-01-13T07:45:34.931Z,3.42
2023-01-13T07:46:37.776Z,5.70
2023-01-13T07:47:40.097Z,4.60
2023-01-13T07:48:41.935Z,3.85
2023-01-13T07:49:43.633Z,3.53
2023-01-13T07:50:45.353Z,5.00
2023-01-13T07:51:48.321Z,5.90
2023-01-13T07:52:51.251Z,7.90
2023-01-13T07:53:52.980Z,6.03
2023-01-13T07:54:54.752Z,2.67
2023-01-13T07:55:57.902Z,4.32
2023-01-13T07:56:59.627Z,4.10
2023-01-13T07:58:01.332Z,4.45
2023-01-13T07:59:03.323Z,8.73
2023-01-13T08:00:05.702Z,3.75
2023-01-13T08:01:09.639Z,4.65
2023-01-13T08:02:13.260Z,4.63
2023-01-13T08:03:15.022Z,3.42
2023-01-13T08:04:16.751Z,4.45
2023-01-13T08:05:18.619Z,6.90
2023-01-13T08:06:20.320Z,4.82
2023-01-13T08:07:22.109Z,6.88
2023-01-13T08:08:23.814Z,4.20
2023-01-13T08:09:25.560Z,4.53
2023-01-13T08:10:27.307Z,4.10
2023-01-13T08:11:29.282Z,5.95
2023-01-13T08:12:52.806Z,4.15
2023-01-13T08:13:57.989Z,4.72
2023-01-13T08:14:59.711Z,3.35
2023-01-13T08:16:06.634Z,7.07
2023-01-13T08:17:09.442Z,6.65
2023-01-13T08:18:12.085Z,6.18
2023-01-13T08:19:13.829Z,5.03
2023-01-13T08:20:15.888Z,4.80
2023-01-13T08:21:17.857Z,6.05
2023-01-13T08:22:19.559Z,10.27
2023-01-13T08:23:22.588Z,6.13
2023-01-13T08:24:24.441Z,5.15
2023-01-13T08:25:27.815Z,4.45
2023-01-13T08:26:29.516Z,5.70
2023-01-13T08:27:31.235Z,4.65
2023-01-13T08:28:33.188Z,4.93
2023-01-13T08:29:34.960Z,4.18
2023-01-13T08:30:36.857Z,5.18
2023-01-13T08:31:38.589Z,4.78
2023-01-13T08:32:40.313Z,5.47
2023-01-13T08:33:42.502Z,5.97
2023-01-13T08:34:44.236Z,7.93
2023-01-13T08:35:46.197Z,6.60
2023-01-13T08:36:50.354Z,5.72
2023-01-13T08:37:52.422Z,9.77
2023-01-13T08:38:54.167Z,6.25
2023-01-13T08:39:55.867Z,6.68
2023-01-13T08:40:57.805Z,7.13
2023-01-13T08:41:59.592Z,6.85
2023-01-13T08:43:01.557Z,6.20
2023-01-13T08:44:03.453Z,8.32
2023-01-13T08:45:06.502Z,8.38
2023-01-13T08:46:08.333Z,10.20
2023-01-13T08:47:10.217Z,8.30
2023-01-13T08:48:12.055Z,8.98
2023-01-13T08:49:13.778Z,8.80
2023-01-13T08:50:15.637Z,10.80
2023-01-13T08:51:17.383Z,12.63
2023-01-13T08:52:19.382Z,13.95
2023-01-13T08:53:21.169Z,10.30
2023-01-13T08:54:22.922Z,10.48
2023-01-13T08:55:24.713Z,10.00
2023-01-13T08:56:26.432Z,9.18
2023-01-13T08:57:28.921Z,8.35
2023-01-13T08:58:30.692Z,11.05
2023-01-13T08:59:32.696Z,9.20
2023-01-13T09:00:34.437Z,10.63
2023-01-13T09:01:36.235Z,9.88
2023-01-13T09:02:38.713Z,8.90
2023-01-13T09:03:41.957Z,8.57
2023-01-13T09:04:45.171Z,10.23
2023-01-13T09:05:47.023Z,9.52
2023-01-13T09:06:49.537Z,10.27
2023-01-13T09:07:51.234Z,12.98
2023-01-13T09:08:52.989Z,9.35
2023-01-13T09:09:56.879Z,10.80
2023-01-13T09:10:58.738Z,10.02
2023-01-13T09:12:18.996Z,11.93
2023-01-13T09:13:21.930Z,8.80
2023-01-13T09:14:26.863Z,12.88
2023-01-13T09:15:28.732Z,11.45
2023-01-13T09:16:30.565Z,10.57
2023-01-13T09:17:32.343Z,9.88
2023-01-13T09:18:34.032Z,12.15
2023-01-13T09:19:36.076Z,9.35
2023-01-13T09:20:38.269Z,29.48
2023-01-13T09:21:40.071Z,12.07
2023-01-13T09:22:41.891Z,13.32
2023-01-13T09:23:43.593Z,14.73
2023-01-13T09:24:46.398Z,12.57
2023-01-13T09:25:49.293Z,15.57
2023-01-13T09:26:51.530Z,12.25
2023-01-13T09:27:53.277Z,14.27
2023-01-13T09:28:55.475Z,10.63
2023-01-13T09:29:57.189Z,9.68
2023-01-13T09:31:01.404Z,10.60
2023-01-13T09:32:03.625Z,9.85
2023-01-13T09:33:23.787Z,11.30
2023-01-13T09:35:04.081Z,11.60
2023-01-13T09:36:06.254Z,8.07
2023-01-13T09:37:08.522Z,12.20
2023-01-13T09:38:10.242Z,14.50
2023-01-13T09:39:11.992Z,8.88
2023-01-13T09:40:19.618Z,9.50
2023-01-13T09:41:46.136Z,10.57
2023-01-13T09:43:40.075Z,15.50
2023-01-13T09:44:58.137Z,9.48
2023-01-13T09:46:05.924Z,11.43
2023-01-13T09:47:18.098Z,10.80
2023-01-13T09:48:26.869Z,12.05
2023-01-13T09:49:39.106Z,13.23
2023-01-13T09:50:53.039Z,11.13
2023-01-13T09:52:15.201Z,11.98
2023-01-13T09:53:24.752Z,11.32
2023-01-13T09:54:35.323Z,11.32
2023-01-13T09:55:37.223Z,11.88
2023-01-13T09:56:38.978Z,12.05
2023-01-13T09:57:41.094Z,12.45
2023-01-13T09:58:45.692Z,12.57
2023-01-13T09:59:48.802Z,13.07
2023-01-13T10:01:19.002Z,13.77
2023-01-13T10:02:48.411Z,13.43
2023-01-13T10:03:50.311Z,8.63
2023-01-13T10:05:13.965Z,10.50
2023-01-13T10:06:34.976Z,11.93
2023-01-13T10:07:42.341Z,11.50
2023-01-13T10:08:46.027Z,7.88
2023-01-13T10:09:53.974Z,11.35
2023-01-13T10:11:24.282Z,10.35
2023-01-13T10:12:45.643Z,9.65
2023-01-13T10:13:51.065Z,14.55
2023-01-13T10:14:56.061Z,12.98
2023-01-13T10:16:24.404Z,11.30
2023-01-13T10:17:54.637Z,12.93
2023-01-13T10:19:06.700Z,11.55
2023-01-13T10:20:30.302Z,12.68
2023-01-13T10:21:53.303Z,22.13
2023-01-13T10:23:13.411Z,11.75
2023-01-13T10:24:30.127Z,9.90
2023-01-13T10:25:50.202Z,10.57
2023-01-13T10:27:05.649Z,7.53
2023-01-13T10:28:17.683Z,8.90
2023-01-13T10:29:28.813Z,8.48
2023-01-13T10:30:36.151Z,6.65
2023-01-13T10:31:37.858Z,10.45
2023-01-13T10:32:42.986Z,6.45
2023-01-13T10:33:44.680Z,5.93
2023-01-13T10:34:52.059Z,9.10
2023-01-13T10:36:15.775Z,7.55
2023-01-13T10:37:23.420Z,9.63
2023-01-13T10:38:35.669Z,9.48
2023-01-13T10:39:47.612Z,5.75
2023-01-13T10:41:02.257Z,6.25
2023-01-13T10:42:05.457Z,5.85
2023-01-13T10:43:07.215Z,6.90
2023-01-13T10:44:17.379Z,6.20
2023-01-13T10:45:25.271Z,8.90
2023-01-13T10:46:28.169Z,6.22
2023-01-13T10:47:35.910Z,7.75
2023-01-13T10:48:56.032Z,8.20
2023-01-13T10:50:13.134Z,7.70
2023-01-13T10:51:25.920Z,7.32
2023-01-13T10:52:33.269Z,6.85
2023-01-13T10:53:46.442Z,6.38
2023-01-13T10:54:57.187Z,10.73
2023-01-13T10:56:01.818Z,5.78
2023-01-13T10:57:14.781Z,8.23
2023-01-13T10:58:21.415Z,7.03
2023-01-13T10:59:27.013Z,9.10
2023-01-13T11:00:33.560Z,7.75
2023-01-13T11:01:35.460Z,7.50
2023-01-13T11:02:37.594Z,9.88
2023-01-13T11:03:43.163Z,8.60
2023-01-13T11:04:54.077Z,7.05
2023-01-13T11:05:58.279Z,5.95
2023-01-13T11:07:01.117Z,6.47
2023-01-13T11:08:02.936Z,10.85
2023-01-13T11:09:20.260Z,6.50
2023-01-13T11:10:31.434Z,5.97
2023-01-13T11:12:59.467Z,8.20
2023-01-13T11:14:23.819Z,10.23
2023-01-13T11:15:38.666Z,8.02
2023-01-13T11:16:53.034Z,5.88
2023-01-13T11:18:01.749Z,7.95
2023-01-13T11:19:14.477Z,8.30
2023-01-13T11:20:23.653Z,7.03
2023-01-13T11:21:33.402Z,5.72
2023-01-13T11:22:45.143Z,8.30
2023-01-13T11:24:14.790Z,6.80
2023-01-13T11:25:33.890Z,10.65
2023-01-13T11:26:51.623Z,8.68
2023-01-13T11:28:01.012Z,10.70
2023-01-13T11:29:18.050Z,8.70
2023-01-13T11:30:29.830Z,9.48
2023-01-13T11:31:36.978Z,7.03
2023-01-13T11:33:08.845Z,8.20
2023-01-13T11:34:32.695Z,9.18
2023-01-13T11:35:40.826Z,11.45
2023-01-13T11:36:50.834Z,10.15
2023-01-13T11:37:59.184Z,11.80
2023-01-13T11:39:23.474Z,8.05
2023-01-13T11:40:32.924Z,7.13
2023-01-13T11:41:47.550Z,9.30
2023-01-13T11:43:04.475Z,8.75
2023-01-13T11:44:38.688Z,9.75
2023-01-13T11:45:44.503Z,11.57
2023-01-13T11:46:49.994Z,9.55
2023-01-13T11:47:57.761Z,7.97
2023-01-13T11:49:01.035Z,11.43
2023-01-13T11:50:03.414Z,8.45
2023-01-13T11:51:13.926Z,7.65
2023-01-13T11:52:31.225Z,9.50
2023-01-13T11:53:54.068Z,12.50
2023-01-13T11:55:22.531Z,7.45
2023-01-13T11:57:02.403Z,8.07
2023-01-13T11:58:24.020Z,10.38
2023-01-13T11:59:50.639Z,9.32
2023-01-13T12:01:36.870Z,15.88
2023-01-13T12:03:17.295Z,10.90
2023-01-13T12:04:28.237Z,10.50
2023-01-13T12:05:48.344Z,10.48
2023-01-13T12:07:23.291Z,9.15
2023-01-13T12:08:48.083Z,10.38
2023-01-13T12:10:01.571Z,12.90
2023-01-13T12:11:15.196Z,12.05
2023-01-13T12:12:40.924Z,12.38
2023-01-13T12:14:20.640Z,13.65
2023-01-13T12:15:22.600Z,11.63
2023-01-13T12:16:30.656Z,11.65
2023-01-13T12:18:10.217Z,12.10
2023-01-13T12:19:29.932Z,14.55
2023-01-13T12:21:03.948Z,11.02
2023-01-13T12:22:28.140Z,13.15
2023-01-13T12:24:06.119Z,12.73
2023-01-13T12:25:21.401Z,11.32
2023-01-13T12:26:23.746Z,10.40
2023-01-13T12:27:37.733Z,9.90
2023-01-13T12:28:51.569Z,10.85
2023-01-13T12:29:57.165Z,11.88
2023-01-13T12:31:02.076Z,11.65
2023-01-13T12:32:07.976Z,10.52
2023-01-13T12:33:22.077Z,13.32
2023-01-13T12:34:34.077Z,12.32
2023-01-13T12:36:17.482Z,13.27
2023-01-13T12:37:46.259Z,15.05
2023-01-13T12:38:59.641Z,11.00
2023-01-13T12:40:13.556Z,11.13
2023-01-13T12:42:05.929Z,12.25
2023-01-13T12:43:40.737Z,15.65
2023-01-13T12:45:10.259Z,11.48
2023-01-13T12:46:23.787Z,13.05
2023-01-13T12:47:41.529Z,11.50
2023-01-13T12:48:56.834Z,13.13
2023-01-13T12:50:23.946Z,11.98
2023-01-13T12:51:54.615Z,11.88
2023-01-13T12:53:01.216Z,16.02
2023-01-13T12:54:25.621Z,13.32
2023-01-13T12:55:30.027Z,15.77
2023-01-13T12:56:45.394Z,14.07
2023-01-13T12:58:05.945Z,11.65
2023-01-13T12:59:17.043Z,18.90
2023-01-13T13:00:19.339Z,11.88
2023-01-13T13:01:35.793Z,11.85
2023-01-13T13:02:42.673Z,11.80
2023-01-13T13:04:41.469Z,11.55
2023-01-13T13:06:07.972Z,11.65
2023-01-13T13:07:15.699Z,13.10
2023-01-13T13:08:37.106Z,12.27
2023-01-13T13:11:32.412Z,13.95
2023-01-13T13:13:01.691Z,12.45
2023-01-13T13:14:06.297Z,13.95
2023-01-13T13:15:21.759Z,13.73
2023-01-13T13:16:26.574Z,11.07
2023-01-13T13:17:31.906Z,12.98
2023-01-13T13:18:34.024Z,12.38
2023-01-13T13:19:35.663Z,11.98
2023-01-13T13:20:56.427Z,11.88
2023-01-13T13:22:13.743Z,12.93
2023-01-13T13:23:40.437Z,11.73
2023-01-13T13:25:03.543Z,12.75
2023-01-13T13:26:20.440Z,12.25
2023-01-13T13:27:37.137Z,13.20
2023-01-13T13:28:48.023Z,16.77
2023-01-13T13:30:00.641Z,16.98
2023-01-13T13:31:40.432Z,16.17
2023-01-13T13:32:47.981Z,15.57
2023-01-13T13:34:20.039Z,12.82
2023-01-13T13:35:27.500Z,14.25
2023-01-13T13:37:07.148Z,14.60
2023-01-13T13:38:45.674Z,15.60
2023-01-13T13:40:06.641Z,12.80
2023-01-13T13:41:38.351Z,14.32
2023-01-13T13:43:03.443Z,13.80
2023-01-13T13:44:48.431Z,13.85
2023-01-13T13:46:11.537Z,15.88
2023-01-13T13:47:13.389Z,13.38
2023-01-13T13:48:24.088Z,13.65
2023-01-13T13:49:41.361Z,12.82
2023-01-13T13:50:47.872Z,14.15
2023-01-13T13:52:02.974Z,20.02
2023-01-13T13:53:08.557Z,16.60
2023-01-13T13:54:17.605Z,12.82
2023-01-13T13:55:20.584Z,14.05
2023-01-13T13:56:26.009Z,15.80
2023-01-13T13:57:35.225Z,12.82
2023-01-13T13:58:37.317Z,10.90
2023-01-13T13:59:40.117Z,11.43
2023-01-13T14:00:48.493Z,13.77
2023-01-13T14:02:01.642Z,10.90
2023-01-13T14:03:07.807Z,14.48
2023-01-13T14:04:22.601Z,12.95
2023-01-13T14:05:29.587Z,11.50
2023-01-13T14:06:32.942Z,10.63
2023-01-13T14:07:46.058Z,16.15
2023-01-13T14:08:50.550Z,12.15
2023-01-13T14:09:54.463Z,11.38
2023-01-13T14:10:56.540Z,12.60
2023-01-13T14:12:03.564Z,18.05
2023-01-13T14:13:25.945Z,11.77
2023-01-13T14:14:28.144Z,12.55
2023-01-13T14:15:33.853Z,14.50
2023-01-13T14:16:39.908Z,19.08
2023-01-13T14:17:41.618Z,20.13
2023-01-13T14:18:47.868Z,17.65
2023-01-13T14:20:17.773Z,16.55
2023-01-13T14:21:28.257Z,17.55
2023-01-13T14:22:30.005Z,16.15
2023-01-13T14:23:33.516Z,13.07
2023-01-13T14:24:46.969Z,18.58
2023-01-13T14:25:51.470Z,15.52
2023-01-13T14:26:53.797Z,16.33
2023-01-13T14:27:59.915Z,22.58
2023-01-13T14:29:02.768Z,17.15
2023-01-13T14:30:05.022Z,17.48
2023-01-13T14:31:09.620Z,14.68
2023-01-13T14:32:17.451Z,16.55
2023-01-13T14:33:24.340Z,15.23
2023-01-13T14:34:32.930Z,17.08
2023-01-13T14:35:34.850Z,16.27
2023-01-13T14:36:37.932Z,23.73
2023-01-13T14:37:41.871Z,21.23
2023-01-13T14:38:47.560Z,20.05
2023-01-13T14:39:49.284Z,14.00
2023-01-13T14:40:51.106Z,16.00
2023-01-13T14:41:53.584Z,14.88
2023-01-13T14:43:22.830Z,18.75
2023-01-13T14:44:32.376Z,18.35
2023-01-13T14:45:34.099Z,16.40
2023-01-13T14:46:41.158Z,14.73
2023-01-13T14:47:52.458Z,11.20
2023-01-13T14:49:01.311Z,15.98
2023-01-13T14:50:03.386Z,12.80
2023-01-13T14:51:10.886Z,12.95
2023-01-13T14:52:24.467Z,15.60
2023-01-13T14:53:47.455Z,13.77
2023-01-13T14:54:53.838Z,16.52
2023-01-13T14:55:55.577Z,14.40
2023-01-13T14:57:22.321Z,14.82
2023-01-13T14:58:31.225Z,20.30
2023-01-13T14:59:33.517Z,17.48
2023-01-13T15:00:35.907Z,19.50
2023-01-13T15:01:39.557Z,19.75
2023-01-13T15:02:56.495Z,24.42
2023-01-13T15:09:12.962Z,25.10
2023-01-13T15:10:19.633Z,28.13
2023-01-13T15:11:26.798Z,25.23
2023-01-13T15:12:31.333Z,27.45
2023-01-13T15:13:52.873Z,24.10
2023-01-13T15:21:31.603Z,26.40
2023-01-13T15:22:33.303Z,24.48